sensor_id;sensor_type;location;lat;lon;timestamp;P1;durP1;ratioP1;P2;durP2;ratioP2
4698;SDS011;33708;49.466;11.176;2022-12-18T00:01:15;42.60;;;18.13;;
4698;SDS011;33708;49.466;11.176;2022-12-18T00:03:47;56.07;;;21.07;;
4698;SDS011;33708;49.466;11.176;2022-12-18T00:06:12;75.00;;;27.70;;
4698;SDS011;33708;49.466;11.176;2022-12-18T00:08:39;77.60;;;28.07;;
4698;SDS011;33708;49.466;11.176;2022-12-18T00:11:05;71.30;;;25.77;;
4698;SDS011;33708;49.466;11.176;2022-12-18T00:13:32;67.00;;;24.93;;
4698;SDS011;33708;49.466;11.176;2022-12-18T00:16:03;74.43;;;28.37;;
4698;SDS011;33708;49.466;11.176;2022-12-18T00:18:31;48.07;;;18.23;;
4698;SDS011;33708;49.466;11.176;2022-12-18T00:21:01;40.33;;;15.87;;
4698;SDS011;33708;49.466;11.176;2022-12-18T00:23:28;37.77;;;14.87;;
4698;SDS011;33708;49.466;11.176;2022-12-18T00:25:54;42.63;;;17.57;;
4698;SDS011;33708;49.466;11.176;2022-12-18T00:28:23;39.73;;;16.90;;
4698;SDS011;33708;49.466;11.176;2022-12-18T00:30:49;44.73;;;15.77;;
4698;SDS011;33708;49.466;11.176;2022-12-18T00:33:16;35.13;;;15.97;;
4698;SDS011;33708;49.466;11.176;2022-12-18T00:35:42;39.67;;;17.23;;
4698;SDS011;33708;49.466;11.176;2022-12-18T00:38:08;45.10;;;18.00;;
4698;SDS011;33708;49.466;11.176;2022-12-18T00:40:33;45.33;;;18.20;;
4698;SDS011;33708;49.466;11.176;2022-12-18T00:42:59;46.60;;;18.30;;
4698;SDS011;33708;49.466;11.176;2022-12-18T00:45:25;43.43;;;18.37;;
4698;SDS011;33708;49.466;11.176;2022-12-18T00:47:53;39.50;;;15.93;;
4698;SDS011;33708;49.466;11.176;2022-12-18T00:50:19;36.67;;;14.70;;
4698;SDS011;33708;49.466;11.176;2022-12-18T00:52:45;37.73;;;14.77;;
4698;SDS011;33708;49.466;11.176;2022-12-18T00:55:11;39.50;;;15.50;;
4698;SDS011;33708;49.466;11.176;2022-12-18T00:57:37;31.40;;;13.00;;
4698;SDS011;33708;49.466;11.176;2022-12-18T01:00:04;31.47;;;12.60;;
4698;SDS011;33708;49.466;11.176;2022-12-18T01:02:31;33.10;;;12.30;;
4698;SDS011;33708;49.466;11.176;2022-12-18T01:04:57;39.10;;;15.40;;
4698;SDS011;33708;49.466;11.176;2022-12-18T01:07:22;38.00;;;14.67;;
4698;SDS011;33708;49.466;11.176;2022-12-18T01:09:48;38.97;;;14.40;;
4698;SDS011;33708;49.466;11.176;2022-12-18T01:12:14;46.50;;;17.23;;
4698;SDS011;33708;49.466;11.176;2022-12-18T01:14:39;29.13;;;12.83;;
4698;SDS011;33708;49.466;11.176;2022-12-18T01:17:05;32.60;;;13.03;;
4698;SDS011;33708;49.466;11.176;2022-12-18T01:19:32;37.23;;;14.27;;
4698;SDS011;33708;49.466;11.176;2022-12-18T01:21:59;32.73;;;14.30;;
4698;SDS011;33708;49.466;11.176;2022-12-18T01:24:25;32.47;;;14.57;;
4698;SDS011;33708;49.466;11.176;2022-12-18T01:26:52;41.97;;;16.23;;
4698;SDS011;33708;49.466;11.176;2022-12-18T01:29:20;36.93;;;16.10;;
4698;SDS011;33708;49.466;11.176;2022-12-18T01:31:48;44.27;;;16.80;;
4698;SDS011;33708;49.466;11.176;2022-12-18T01:34:16;41.67;;;15.77;;
4698;SDS011;33708;49.466;11.176;2022-12-18T01:36:44;38.90;;;15.67;;
4698;SDS011;33708;49.466;11.176;2022-12-18T01:39:12;37.03;;;13.83;;
4698;SDS011;33708;49.466;11.176;2022-12-18T01:41:41;35.43;;;14.43;;
4698;SDS011;33708;49.466;11.176;2022-12-18T01:47:24;37.23;;;13.53;;
4698;SDS011;33708;49.466;11.176;2022-12-18T01:49:52;44.00;;;15.30;;
4698;SDS011;33708;49.466;11.176;2022-12-18T01:52:20;42.03;;;15.40;;
4698;SDS011;33708;49.466;11.176;2022-12-18T01:54:57;32.90;;;13.60;;
4698;SDS011;33708;49.466;11.176;2022-12-18T01:57:31;33.33;;;13.37;;
4698;SDS011;33708;49.466;11.176;2022-12-18T02:00:11;32.80;;;13.57;;
4698;SDS011;33708;49.466;11.176;2022-12-18T02:02:41;34.60;;;11.93;;
4698;SDS011;33708;49.466;11.176;2022-12-18T02:05:14;34.80;;;12.17;;
4698;SDS011;33708;49.466;11.176;2022-12-18T02:11:36;31.93;;;12.53;;
4698;SDS011;33708;49.466;11.176;2022-12-18T02:16:21;41.83;;;15.07;;
4698;SDS011;33708;49.466;11.176;2022-12-18T02:18:56;34.70;;;13.33;;
4698;SDS011;33708;49.466;11.176;2022-12-18T02:26:50;28.13;;;11.10;;
4698;SDS011;33708;49.466;11.176;2022-12-18T02:29:29;26.50;;;11.00;;
4698;SDS011;33708;49.466;11.176;2022-12-18T02:32:10;28.33;;;11.80;;
4698;SDS011;33708;49.466;11.176;2022-12-18T02:34:41;34.50;;;12.33;;
4698;SDS011;33708;49.466;11.176;2022-12-18T02:37:09;31.87;;;11.40;;
4698;SDS011;33708;49.466;11.176;2022-12-18T02:39:39;29.77;;;10.77;;
4698;SDS011;33708;49.466;11.176;2022-12-18T02:42:07;30.83;;;11.37;;
4698;SDS011;33708;49.466;11.176;2022-12-18T02:44:47;28.23;;;10.50;;
4698;SDS011;33708;49.466;11.176;2022-12-18T02:47:15;31.43;;;13.73;;
4698;SDS011;33708;49.466;11.176;2022-12-18T02:49:56;36.07;;;12.57;;
4698;SDS011;33708;49.466;11.176;2022-12-18T02:56:05;31.17;;;10.30;;
4698;SDS011;33708;49.466;11.176;2022-12-18T03:01:23;25.67;;;10.50;;
4698;SDS011;33708;49.466;11.176;2022-12-18T03:04:11;31.27;;;11.70;;
4698;SDS011;33708;49.466;11.176;2022-12-18T03:06:44;28.50;;;11.43;;
4698;SDS011;33708;49.466;11.176;2022-12-18T03:09:16;30.10;;;11.90;;
4698;SDS011;33708;49.466;11.176;2022-12-18T03:11:47;27.70;;;10.97;;
4698;SDS011;33708;49.466;11.176;2022-12-18T03:14:38;37.37;;;12.13;;
4698;SDS011;33708;49.466;11.176;2022-12-18T03:17:07;28.70;;;11.23;;
4698;SDS011;33708;49.466;11.176;2022-12-18T03:19:36;27.00;;;11.07;;
4698;SDS011;33708;49.466;11.176;2022-12-18T03:22:04;27.67;;;10.70;;
4698;SDS011;33708;49.466;11.176;2022-12-18T03:24:31;26.40;;;10.60;;
4698;SDS011;33708;49.466;11.176;2022-12-18T03:27:01;30.90;;;11.00;;
4698;SDS011;33708;49.466;11.176;2022-12-18T03:29:43;26.63;;;10.80;;
4698;SDS011;33708;49.466;11.176;2022-12-18T03:32:28;35.37;;;12.70;;
4698;SDS011;33708;49.466;11.176;2022-12-18T03:34:57;28.10;;;11.17;;
4698;SDS011;33708;49.466;11.176;2022-12-18T03:37:27;33.03;;;13.30;;
4698;SDS011;33708;49.466;11.176;2022-12-18T03:39:58;35.93;;;13.30;;
4698;SDS011;33708;49.466;11.176;2022-12-18T03:42:32;28.63;;;12.53;;
4698;SDS011;33708;49.466;11.176;2022-12-18T03:48:01;32.20;;;13.30;;
4698;SDS011;33708;49.466;11.176;2022-12-18T03:50:37;32.63;;;13.03;;
4698;SDS011;33708;49.466;11.176;2022-12-18T03:53:20;28.83;;;12.30;;
4698;SDS011;33708;49.466;11.176;2022-12-18T03:56:03;36.53;;;12.70;;
4698;SDS011;33708;49.466;11.176;2022-12-18T03:58:31;37.57;;;13.20;;
4698;SDS011;33708;49.466;11.176;2022-12-18T04:01:00;29.27;;;10.87;;
4698;SDS011;33708;49.466;11.176;2022-12-18T04:03:29;35.00;;;14.77;;
4698;SDS011;33708;49.466;11.176;2022-12-18T04:05:57;32.70;;;13.57;;
4698;SDS011;33708;49.466;11.176;2022-12-18T04:08:24;36.57;;;14.00;;
4698;SDS011;33708;49.466;11.176;2022-12-18T04:10:50;39.73;;;15.27;;
4698;SDS011;33708;49.466;11.176;2022-12-18T04:13:29;38.47;;;13.37;;
4698;SDS011;33708;49.466;11.176;2022-12-18T04:15:59;36.00;;;12.90;;
4698;SDS011;33708;49.466;11.176;2022-12-18T04:18:24;32.80;;;12.23;;
4698;SDS011;33708;49.466;11.176;2022-12-18T04:20:50;36.63;;;13.60;;
4698;SDS011;33708;49.466;11.176;2022-12-18T04:23:16;28.60;;;12.50;;
4698;SDS011;33708;49.466;11.176;2022-12-18T04:25:42;36.00;;;13.10;;
4698;SDS011;33708;49.466;11.176;2022-12-18T04:28:07;30.20;;;12.57;;
4698;SDS011;33708;49.466;11.176;2022-12-18T04:30:33;38.03;;;15.00;;
4698;SDS011;33708;49.466;11.176;2022-12-18T04:32:59;34.77;;;14.63;;
4698;SDS011;33708;49.466;11.176;2022-12-18T04:35:24;35.53;;;15.60;;
4698;SDS011;33708;49.466;11.176;2022-12-18T04:37:50;35.83;;;14.43;;
4698;SDS011;33708;49.466;11.176;2022-12-18T04:40:16;39.87;;;15.43;;
4698;SDS011;33708;49.466;11.176;2022-12-18T04:42:42;36.27;;;15.10;;
4698;SDS011;33708;49.466;11.176;2022-12-18T04:45:07;40.73;;;16.73;;
4698;SDS011;33708;49.466;11.176;2022-12-18T04:47:33;39.80;;;15.07;;
4698;SDS011;33708;49.466;11.176;2022-12-18T04:49:59;46.07;;;16.17;;
4698;SDS011;33708;49.466;11.176;2022-12-18T04:52:25;35.13;;;15.07;;
4698;SDS011;33708;49.466;11.176;2022-12-18T04:54:50;40.70;;;16.37;;
4698;SDS011;33708;49.466;11.176;2022-12-18T04:57:19;43.07;;;16.73;;
4698;SDS011;33708;49.466;11.176;2022-12-18T04:59:44;43.03;;;16.17;;
4698;SDS011;33708;49.466;11.176;2022-12-18T05:02:10;42.93;;;16.63;;
4698;SDS011;33708;49.466;11.176;2022-12-18T05:04:36;39.23;;;14.93;;
4698;SDS011;33708;49.466;11.176;2022-12-18T05:07:02;37.60;;;15.17;;
4698;SDS011;33708;49.466;11.176;2022-12-18T05:09:27;40.00;;;15.07;;
4698;SDS011;33708;49.466;11.176;2022-12-18T05:11:56;43.93;;;16.77;;
4698;SDS011;33708;49.466;11.176;2022-12-18T05:14:21;36.33;;;14.30;;
4698;SDS011;33708;49.466;11.176;2022-12-18T05:16:48;41.43;;;16.10;;
4698;SDS011;33708;49.466;11.176;2022-12-18T05:19:13;39.83;;;15.23;;
4698;SDS011;33708;49.466;11.176;2022-12-18T05:21:39;42.57;;;17.33;;
4698;SDS011;33708;49.466;11.176;2022-12-18T05:24:05;38.93;;;15.33;;
4698;SDS011;33708;49.466;11.176;2022-12-18T05:26:31;44.07;;;17.07;;
4698;SDS011;33708;49.466;11.176;2022-12-18T05:28:56;46.47;;;18.30;;
4698;SDS011;33708;49.466;11.176;2022-12-18T05:31:22;53.87;;;18.90;;
4698;SDS011;33708;49.466;11.176;2022-12-18T05:33:51;48.47;;;17.70;;
4698;SDS011;33708;49.466;11.176;2022-12-18T05:36:16;54.20;;;19.93;;
4698;SDS011;33708;49.466;11.176;2022-12-18T05:38:42;53.57;;;21.03;;
4698;SDS011;33708;49.466;11.176;2022-12-18T05:41:08;53.97;;;20.60;;
4698;SDS011;33708;49.466;11.176;2022-12-18T05:43:35;54.60;;;20.67;;
4698;SDS011;33708;49.466;11.176;2022-12-18T05:46:05;53.10;;;20.03;;
4698;SDS011;33708;49.466;11.176;2022-12-18T05:48:32;50.10;;;21.20;;
4698;SDS011;33708;49.466;11.176;2022-12-18T05:51:08;43.37;;;17.80;;
4698;SDS011;33708;49.466;11.176;2022-12-18T05:53:36;44.37;;;18.00;;
4698;SDS011;33708;49.466;11.176;2022-12-18T05:56:03;52.70;;;20.73;;
4698;SDS011;33708;49.466;11.176;2022-12-18T05:58:30;51.57;;;19.07;;
4698;SDS011;33708;49.466;11.176;2022-12-18T06:00:56;47.37;;;20.73;;
4698;SDS011;33708;49.466;11.176;2022-12-18T06:03:22;52.67;;;22.33;;
4698;SDS011;33708;49.466;11.176;2022-12-18T06:05:48;51.13;;;21.23;;
4698;SDS011;33708;49.466;11.176;2022-12-18T06:08:13;60.77;;;26.50;;
4698;SDS011;33708;49.466;11.176;2022-12-18T06:10:39;53.73;;;19.60;;
4698;SDS011;33708;49.466;11.176;2022-12-18T06:13:05;49.20;;;19.93;;
4698;SDS011;33708;49.466;11.176;2022-12-18T06:15:31;47.60;;;18.27;;
4698;SDS011;33708;49.466;11.176;2022-12-18T06:18:01;48.30;;;19.07;;
4698;SDS011;33708;49.466;11.176;2022-12-18T06:20:26;47.93;;;18.53;;
4698;SDS011;33708;49.466;11.176;2022-12-18T06:22:58;44.27;;;18.70;;
4698;SDS011;33708;49.466;11.176;2022-12-18T06:25:24;46.10;;;19.20;;
4698;SDS011;33708;49.466;11.176;2022-12-18T06:27:50;49.70;;;18.30;;
4698;SDS011;33708;49.466;11.176;2022-12-18T06:30:15;47.63;;;18.07;;
4698;SDS011;33708;49.466;11.176;2022-12-18T06:32:41;49.20;;;18.70;;
4698;SDS011;33708;49.466;11.176;2022-12-18T06:35:07;52.97;;;21.40;;
4698;SDS011;33708;49.466;11.176;2022-12-18T06:37:33;57.90;;;20.60;;
4698;SDS011;33708;49.466;11.176;2022-12-18T06:39:58;54.87;;;20.20;;
4698;SDS011;33708;49.466;11.176;2022-12-18T06:42:25;52.80;;;22.00;;
4698;SDS011;33708;49.466;11.176;2022-12-18T06:44:51;50.57;;;20.77;;
4698;SDS011;33708;49.466;11.176;2022-12-18T06:47:17;52.30;;;20.30;;
4698;SDS011;33708;49.466;11.176;2022-12-18T06:49:43;48.30;;;20.40;;
4698;SDS011;33708;49.466;11.176;2022-12-18T06:52:09;51.53;;;20.37;;
4698;SDS011;33708;49.466;11.176;2022-12-18T06:54:34;47.57;;;20.17;;
4698;SDS011;33708;49.466;11.176;2022-12-18T06:57:00;50.03;;;21.50;;
4698;SDS011;33708;49.466;11.176;2022-12-18T06:59:25;54.60;;;22.70;;
4698;SDS011;33708;49.466;11.176;2022-12-18T07:01:51;53.80;;;23.17;;
4698;SDS011;33708;49.466;11.176;2022-12-18T07:04:17;55.70;;;21.17;;
4698;SDS011;33708;49.466;11.176;2022-12-18T07:06:42;47.13;;;18.20;;
4698;SDS011;33708;49.466;11.176;2022-12-18T07:09:08;49.10;;;19.53;;
4698;SDS011;33708;49.466;11.176;2022-12-18T07:11:33;42.80;;;17.00;;
4698;SDS011;33708;49.466;11.176;2022-12-18T07:13:59;58.47;;;21.03;;
4698;SDS011;33708;49.466;11.176;2022-12-18T07:16:25;51.50;;;19.97;;
4698;SDS011;33708;49.466;11.176;2022-12-18T07:18:53;55.83;;;21.60;;
4698;SDS011;33708;49.466;11.176;2022-12-18T07:21:20;52.90;;;21.03;;
4698;SDS011;33708;49.466;11.176;2022-12-18T07:23:46;49.17;;;20.07;;
4698;SDS011;33708;49.466;11.176;2022-12-18T07:26:13;51.13;;;19.87;;
4698;SDS011;33708;49.466;11.176;2022-12-18T07:28:40;54.07;;;20.40;;
4698;SDS011;33708;49.466;11.176;2022-12-18T07:31:07;46.33;;;18.97;;
4698;SDS011;33708;49.466;11.176;2022-12-18T07:33:34;50.60;;;19.30;;
4698;SDS011;33708;49.466;11.176;2022-12-18T07:36:01;56.07;;;22.20;;
4698;SDS011;33708;49.466;11.176;2022-12-18T07:38:28;58.10;;;21.77;;
4698;SDS011;33708;49.466;11.176;2022-12-18T07:40:54;47.73;;;20.10;;
4698;SDS011;33708;49.466;11.176;2022-12-18T07:43:25;50.30;;;20.40;;
4698;SDS011;33708;49.466;11.176;2022-12-18T07:45:50;52.63;;;20.30;;
4698;SDS011;33708;49.466;11.176;2022-12-18T07:48:16;50.10;;;21.77;;
4698;SDS011;33708;49.466;11.176;2022-12-18T07:50:41;63.03;;;22.07;;
4698;SDS011;33708;49.466;11.176;2022-12-18T07:53:10;50.87;;;21.07;;
4698;SDS011;33708;49.466;11.176;2022-12-18T07:55:35;47.17;;;19.37;;
4698;SDS011;33708;49.466;11.176;2022-12-18T07:58:02;53.17;;;22.80;;
4698;SDS011;33708;49.466;11.176;2022-12-18T08:00:28;49.57;;;21.70;;
4698;SDS011;33708;49.466;11.176;2022-12-18T08:02:54;59.73;;;26.80;;
4698;SDS011;33708;49.466;11.176;2022-12-18T08:05:20;59.30;;;25.90;;
4698;SDS011;33708;49.466;11.176;2022-12-18T08:07:46;73.83;;;28.40;;
4698;SDS011;33708;49.466;11.176;2022-12-18T08:10:12;66.37;;;25.20;;
4698;SDS011;33708;49.466;11.176;2022-12-18T08:12:38;77.33;;;29.10;;
4698;SDS011;33708;49.466;11.176;2022-12-18T08:15:04;61.30;;;25.60;;
4698;SDS011;33708;49.466;11.176;2022-12-18T08:17:30;55.37;;;22.60;;
4698;SDS011;33708;49.466;11.176;2022-12-18T08:19:56;53.87;;;20.90;;
4698;SDS011;33708;49.466;11.176;2022-12-18T08:22:22;51.50;;;21.53;;
4698;SDS011;33708;49.466;11.176;2022-12-18T08:24:47;55.83;;;24.00;;
4698;SDS011;33708;49.466;11.176;2022-12-18T08:27:13;58.83;;;24.13;;
4698;SDS011;33708;49.466;11.176;2022-12-18T08:29:38;48.70;;;20.40;;
4698;SDS011;33708;49.466;11.176;2022-12-18T08:32:04;58.13;;;24.80;;
4698;SDS011;33708;49.466;11.176;2022-12-18T08:34:30;52.60;;;23.13;;
4698;SDS011;33708;49.466;11.176;2022-12-18T08:36:55;57.03;;;23.63;;
4698;SDS011;33708;49.466;11.176;2022-12-18T08:39:21;49.70;;;22.90;;
4698;SDS011;33708;49.466;11.176;2022-12-18T08:41:47;44.97;;;20.00;;
4698;SDS011;33708;49.466;11.176;2022-12-18T08:44:32;42.23;;;17.67;;
4698;SDS011;33708;49.466;11.176;2022-12-18T08:47:04;46.33;;;18.87;;
4698;SDS011;33708;49.466;11.176;2022-12-18T08:49:31;40.97;;;16.30;;
4698;SDS011;33708;49.466;11.176;2022-12-18T08:51:57;43.43;;;17.70;;
4698;SDS011;33708;49.466;11.176;2022-12-18T08:54:23;50.27;;;19.10;;
4698;SDS011;33708;49.466;11.176;2022-12-18T08:56:49;42.07;;;17.27;;
4698;SDS011;33708;49.466;11.176;2022-12-18T08:59:16;50.57;;;21.10;;
4698;SDS011;33708;49.466;11.176;2022-12-18T09:01:42;37.37;;;15.83;;
4698;SDS011;33708;49.466;11.176;2022-12-18T09:04:11;47.53;;;19.53;;
4698;SDS011;33708;49.466;11.176;2022-12-18T09:06:37;41.30;;;16.73;;
4698;SDS011;33708;49.466;11.176;2022-12-18T09:09:03;44.90;;;16.30;;
4698;SDS011;33708;49.466;11.176;2022-12-18T09:11:30;41.70;;;18.30;;
4698;SDS011;33708;49.466;11.176;2022-12-18T09:13:56;40.73;;;17.67;;
4698;SDS011;33708;49.466;11.176;2022-12-18T09:16:23;45.80;;;17.63;;
4698;SDS011;33708;49.466;11.176;2022-12-18T09:18:56;41.57;;;18.13;;
4698;SDS011;33708;49.466;11.176;2022-12-18T09:21:26;41.87;;;16.07;;
4698;SDS011;33708;49.466;11.176;2022-12-18T09:23:54;42.93;;;17.47;;
4698;SDS011;33708;49.466;11.176;2022-12-18T09:26:21;42.67;;;16.43;;
4698;SDS011;33708;49.466;11.176;2022-12-18T09:28:48;42.03;;;17.33;;
4698;SDS011;33708;49.466;11.176;2022-12-18T09:31:14;42.90;;;17.23;;
4698;SDS011;33708;49.466;11.176;2022-12-18T09:33:41;40.80;;;17.73;;
4698;SDS011;33708;49.466;11.176;2022-12-18T09:36:07;37.57;;;16.70;;
4698;SDS011;33708;49.466;11.176;2022-12-18T09:38:35;44.67;;;18.13;;
4698;SDS011;33708;49.466;11.176;2022-12-18T09:41:38;44.17;;;18.07;;
4698;SDS011;33708;49.466;11.176;2022-12-18T09:44:05;41.67;;;16.80;;
4698;SDS011;33708;49.466;11.176;2022-12-18T09:46:42;44.70;;;17.33;;
4698;SDS011;33708;49.466;11.176;2022-12-18T09:49:12;44.00;;;18.97;;
4698;SDS011;33708;49.466;11.176;2022-12-18T09:54:16;48.90;;;17.10;;
4698;SDS011;33708;49.466;11.176;2022-12-18T09:56:47;48.30;;;19.20;;
4698;SDS011;33708;49.466;11.176;2022-12-18T09:59:21;42.33;;;18.17;;
4698;SDS011;33708;49.466;11.176;2022-12-18T10:01:57;44.07;;;16.40;;
4698;SDS011;33708;49.466;11.176;2022-12-18T10:04:23;42.10;;;14.53;;
4698;SDS011;33708;49.466;11.176;2022-12-18T10:06:54;43.43;;;19.47;;
4698;SDS011;33708;49.466;11.176;2022-12-18T10:09:33;40.80;;;16.40;;
4698;SDS011;33708;49.466;11.176;2022-12-18T10:20:05;36.97;;;16.57;;
4698;SDS011;33708;49.466;11.176;2022-12-18T10:27:51;42.80;;;17.47;;
4698;SDS011;33708;49.466;11.176;2022-12-18T10:30:21;40.80;;;15.13;;
4698;SDS011;33708;49.466;11.176;2022-12-18T10:32:48;44.93;;;19.10;;
4698;SDS011;33708;49.466;11.176;2022-12-18T10:35:22;39.63;;;14.80;;
4698;SDS011;33708;49.466;11.176;2022-12-18T10:46:01;41.27;;;17.30;;
4698;SDS011;33708;49.466;11.176;2022-12-18T10:48:31;41.90;;;17.23;;
4698;SDS011;33708;49.466;11.176;2022-12-18T10:50:58;41.20;;;17.60;;
4698;SDS011;33708;49.466;11.176;2022-12-18T10:53:28;36.23;;;15.87;;
4698;SDS011;33708;49.466;11.176;2022-12-18T10:55:56;40.67;;;15.70;;
4698;SDS011;33708;49.466;11.176;2022-12-18T10:58:31;50.80;;;20.00;;
4698;SDS011;33708;49.466;11.176;2022-12-18T11:01:06;42.37;;;16.13;;
4698;SDS011;33708;49.466;11.176;2022-12-18T11:03:43;42.50;;;16.80;;
4698;SDS011;33708;49.466;11.176;2022-12-18T11:06:24;38.33;;;16.60;;
4698;SDS011;33708;49.466;11.176;2022-12-18T11:08:57;37.23;;;15.40;;
4698;SDS011;33708;49.466;11.176;2022-12-18T11:11:53;38.23;;;16.37;;
4698;SDS011;33708;49.466;11.176;2022-12-18T11:14:32;36.13;;;15.63;;
4698;SDS011;33708;49.466;11.176;2022-12-18T11:17:16;40.13;;;15.13;;
4698;SDS011;33708;49.466;11.176;2022-12-18T11:19:44;33.73;;;13.90;;
4698;SDS011;33708;49.466;11.176;2022-12-18T11:22:20;41.77;;;15.67;;
4698;SDS011;33708;49.466;11.176;2022-12-18T11:27:26;34.40;;;15.40;;
4698;SDS011;33708;49.466;11.176;2022-12-18T11:30:06;34.90;;;15.23;;
4698;SDS011;33708;49.466;11.176;2022-12-18T11:32:47;39.67;;;15.40;;
4698;SDS011;33708;49.466;11.176;2022-12-18T11:35:18;41.60;;;16.27;;
4698;SDS011;33708;49.466;11.176;2022-12-18T11:37:57;33.67;;;15.30;;
4698;SDS011;33708;49.466;11.176;2022-12-18T11:40:31;41.30;;;16.73;;
4698;SDS011;33708;49.466;11.176;2022-12-18T11:43:06;39.00;;;16.40;;
4698;SDS011;33708;49.466;11.176;2022-12-18T11:45:43;37.47;;;16.70;;
4698;SDS011;33708;49.466;11.176;2022-12-18T11:48:50;43.30;;;17.20;;
4698;SDS011;33708;49.466;11.176;2022-12-18T11:51:35;35.60;;;16.37;;
4698;SDS011;33708;49.466;11.176;2022-12-18T11:54:13;40.37;;;16.30;;
4698;SDS011;33708;49.466;11.176;2022-12-18T11:56:46;34.83;;;14.97;;
4698;SDS011;33708;49.466;11.176;2022-12-18T12:01:59;39.83;;;15.47;;
4698;SDS011;33708;49.466;11.176;2022-12-18T12:07:49;38.60;;;15.00;;
4698;SDS011;33708;49.466;11.176;2022-12-18T12:10:35;38.83;;;17.17;;
4698;SDS011;33708;49.466;11.176;2022-12-18T12:18:49;44.80;;;17.80;;
4698;SDS011;33708;49.466;11.176;2022-12-18T12:21:41;39.73;;;15.97;;
4698;SDS011;33708;49.466;11.176;2022-12-18T12:26:45;40.67;;;15.77;;
4698;SDS011;33708;49.466;11.176;2022-12-18T12:37:36;40.83;;;18.27;;
4698;SDS011;33708;49.466;11.176;2022-12-18T12:40:31;37.93;;;16.57;;
4698;SDS011;33708;49.466;11.176;2022-12-18T12:43:03;37.33;;;17.07;;
4698;SDS011;33708;49.466;11.176;2022-12-18T12:45:53;33.47;;;16.03;;
4698;SDS011;33708;49.466;11.176;2022-12-18T12:51:04;36.37;;;17.70;;
4698;SDS011;33708;49.466;11.176;2022-12-18T12:53:36;38.40;;;14.30;;
4698;SDS011;33708;49.466;11.176;2022-12-18T12:56:04;35.20;;;14.90;;
4698;SDS011;33708;49.466;11.176;2022-12-18T12:58:39;35.70;;;15.27;;
4698;SDS011;33708;49.466;11.176;2022-12-18T13:01:33;34.57;;;15.50;;
4698;SDS011;33708;49.466;11.176;2022-12-18T13:12:37;28.60;;;11.83;;
4698;SDS011;33708;49.466;11.176;2022-12-18T13:15:23;35.43;;;14.23;;
4698;SDS011;33708;49.466;11.176;2022-12-18T13:18:01;32.90;;;13.50;;
4698;SDS011;33708;49.466;11.176;2022-12-18T13:20:37;30.13;;;13.50;;
4698;SDS011;33708;49.466;11.176;2022-12-18T13:23:23;30.90;;;13.73;;
4698;SDS011;33708;49.466;11.176;2022-12-18T13:31:12;32.83;;;13.60;;
4698;SDS011;33708;49.466;11.176;2022-12-18T13:39:58;30.03;;;12.70;;
4698;SDS011;33708;49.466;11.176;2022-12-18T13:48:03;30.07;;;12.37;;
4698;SDS011;33708;49.466;11.176;2022-12-18T13:50:29;33.73;;;13.10;;
4698;SDS011;33708;49.466;11.176;2022-12-18T13:52:55;29.60;;;13.30;;
4698;SDS011;33708;49.466;11.176;2022-12-18T13:55:21;29.83;;;12.33;;
4698;SDS011;33708;49.466;11.176;2022-12-18T13:57:48;33.87;;;14.93;;
4698;SDS011;33708;49.466;11.176;2022-12-18T14:02:45;34.43;;;15.00;;
4698;SDS011;33708;49.466;11.176;2022-12-18T14:07:49;35.30;;;13.80;;
4698;SDS011;33708;49.466;11.176;2022-12-18T14:10:15;37.30;;;13.33;;
4698;SDS011;33708;49.466;11.176;2022-12-18T14:12:44;35.50;;;14.80;;
4698;SDS011;33708;49.466;11.176;2022-12-18T14:15:24;31.50;;;14.60;;
4698;SDS011;33708;49.466;11.176;2022-12-18T14:17:54;36.07;;;15.00;;
4698;SDS011;33708;49.466;11.176;2022-12-18T14:20:24;36.40;;;14.57;;
4698;SDS011;33708;49.466;11.176;2022-12-18T14:22:52;32.57;;;14.50;;
4698;SDS011;33708;49.466;11.176;2022-12-18T14:28:42;35.30;;;13.03;;
4698;SDS011;33708;49.466;11.176;2022-12-18T14:30:39;33.30;;;14.57;;
4698;SDS011;33708;49.466;11.176;2022-12-18T14:33:10;31.10;;;14.13;;
4698;SDS011;33708;49.466;11.176;2022-12-18T14:36:00;32.93;;;14.03;;
4698;SDS011;33708;49.466;11.176;2022-12-18T14:38:35;33.53;;;15.47;;
4698;SDS011;33708;49.466;11.176;2022-12-18T14:41:14;42.10;;;16.00;;
4698;SDS011;33708;49.466;11.176;2022-12-18T14:43:42;31.63;;;13.80;;
4698;SDS011;33708;49.466;11.176;2022-12-18T14:46:29;42.37;;;16.00;;
4698;SDS011;33708;49.466;11.176;2022-12-18T14:49:04;36.90;;;14.73;;
4698;SDS011;33708;49.466;11.176;2022-12-18T14:51:47;32.90;;;13.67;;
4698;SDS011;33708;49.466;11.176;2022-12-18T14:54:23;34.87;;;14.10;;
4698;SDS011;33708;49.466;11.176;2022-12-18T14:56:59;36.20;;;14.40;;
4698;SDS011;33708;49.466;11.176;2022-12-18T14:59:30;30.27;;;13.63;;
4698;SDS011;33708;49.466;11.176;2022-12-18T15:04:44;38.33;;;16.80;;
4698;SDS011;33708;49.466;11.176;2022-12-18T15:09:44;36.33;;;13.80;;
4698;SDS011;33708;49.466;11.176;2022-12-18T15:13:08;33.77;;;15.90;;
4698;SDS011;33708;49.466;11.176;2022-12-18T15:15:56;34.77;;;15.30;;
4698;SDS011;33708;49.466;11.176;2022-12-18T15:20:33;41.70;;;14.77;;
4698;SDS011;33708;49.466;11.176;2022-12-18T15:23:45;33.40;;;15.90;;
4698;SDS011;33708;49.466;11.176;2022-12-18T15:26:10;43.50;;;17.80;;
4698;SDS011;33708;49.466;11.176;2022-12-18T15:33:35;42.53;;;18.43;;
4698;SDS011;33708;49.466;11.176;2022-12-18T15:36:03;37.77;;;16.67;;
4698;SDS011;33708;49.466;11.176;2022-12-18T15:38:33;37.13;;;17.10;;
4698;SDS011;33708;49.466;11.176;2022-12-18T15:40:58;38.73;;;15.80;;
4698;SDS011;33708;49.466;11.176;2022-12-18T15:43:24;44.87;;;18.37;;
4698;SDS011;33708;49.466;11.176;2022-12-18T15:46:03;48.67;;;18.97;;
4698;SDS011;33708;49.466;11.176;2022-12-18T15:48:32;54.00;;;23.60;;
4698;SDS011;33708;49.466;11.176;2022-12-18T15:50:59;49.80;;;20.07;;
4698;SDS011;33708;49.466;11.176;2022-12-18T15:53:27;43.30;;;16.17;;
4698;SDS011;33708;49.466;11.176;2022-12-18T15:55:57;43.23;;;18.43;;
4698;SDS011;33708;49.466;11.176;2022-12-18T15:58:41;41.03;;;18.20;;
4698;SDS011;33708;49.466;11.176;2022-12-18T16:01:07;39.53;;;16.43;;
4698;SDS011;33708;49.466;11.176;2022-12-18T16:03:34;42.03;;;17.77;;
4698;SDS011;33708;49.466;11.176;2022-12-18T16:06:00;40.63;;;18.47;;
4698;SDS011;33708;49.466;11.176;2022-12-18T16:08:27;37.50;;;15.97;;
4698;SDS011;33708;49.466;11.176;2022-12-18T16:10:54;39.63;;;16.50;;
4698;SDS011;33708;49.466;11.176;2022-12-18T16:13:21;40.63;;;17.37;;
4698;SDS011;33708;49.466;11.176;2022-12-18T16:15:47;37.73;;;16.30;;
4698;SDS011;33708;49.466;11.176;2022-12-18T16:18:13;38.30;;;16.90;;
4698;SDS011;33708;49.466;11.176;2022-12-18T16:20:39;39.87;;;16.57;;
4698;SDS011;33708;49.466;11.176;2022-12-18T16:23:05;36.70;;;15.73;;
4698;SDS011;33708;49.466;11.176;2022-12-18T16:25:30;31.00;;;12.63;;
4698;SDS011;33708;49.466;11.176;2022-12-18T16:27:56;32.20;;;13.43;;
4698;SDS011;33708;49.466;11.176;2022-12-18T16:30:23;38.83;;;15.03;;
4698;SDS011;33708;49.466;11.176;2022-12-18T16:32:55;33.67;;;14.40;;
4698;SDS011;33708;49.466;11.176;2022-12-18T16:35:21;39.40;;;17.83;;
4698;SDS011;33708;49.466;11.176;2022-12-18T16:37:50;35.33;;;15.23;;
4698;SDS011;33708;49.466;11.176;2022-12-18T16:40:16;37.07;;;17.27;;